Keesler Air Force Base
KBIX : now visible

Airfield :











YOU CAN JOIN US ON...

 
LOGIN :

Register | Disclaimer

   EN    FR    IT 

 









Legend :    VFR   Marginal VFR   IFR   Intensive IFR   Very Intensive IFR
Visi :
Ceiling :
>= 8 km
>= 3000ft
5 to 8 km
1000 to 3000 ft
1500m to 5 km
500 to 1000 ft
800 to 1500m
200 to 500 ft
< 800m
< 200 ft
Symbols :   Thunderstorms  Fog  Heavy snow  Heavy precipitations  Wind > 20 kt






- Airport Elevation : 33 ft


KBIX - Keesler Air Force Base

CURRENT METAR :
  • 190256Z AUTO 00000KT 10SM CLR 10/09 A2992 RMK AO2 SLP135 T01030091 53016

EXPIRED METARs :
  • 190156Z AUTO 00000KT 10SM CLR 11/10 A2989 RMK AO2 SLP125 T01120095
  • 190056Z AUTO 00000KT 10SM CLR 12/09 A2987 RMK AO2 SLP118 T01230089

TAF TAF KBIX
Valid from the 19 at 02:00 until the 20 at 08:00 UTC


190200Z 1902/2008 02006KT 9999 SKC QNH2983INS
BECMG 1916/1917 26006KT 9999 FEW200 QNH2985INS
BECMG 2001/2002 29006KT 9999 SKC QNH2990INS TX21/1918Z TN06/1911Z



MET'MAP, your aeronautical weather chart ! - Copyright ORBIFLY December 2007 - Disclaimer

ORBIFLY MET'MAP TEAM :

Programming & Development : Alexandra Zaïnal
Concept & Development : Baudouin d'Aumeries
Co-Development & Prog : Marc-Olivier Méhu
Technical & hardware support : Manuel Goepfert

Contact : metmap@orbifly.com




SOURCES & CREDITS :

   NOAA       Earth
Advisory